Terminal Aerodrome Forecast
Issued by NWS Duluth, MN

Home | Current Version | Previous Version | Text Only | Print | Product List | Glossary On
Versions: 1 2 3 4 5 6 7 8 9 10 11 12 13 14 15 16 17
669
FTUS43 KDLH 272331
TAFDLH
TAF
KDLH 272331Z 2800/2824 30010KT P6SM VCSH OVC030
      TEMPO 2800/2802 SCT030 OVC040
     FM280200 28008KT P6SM BKN030 OVC040
      TEMPO 2806/2810 BKN015 OVC025
     FM281500 30011G18KT P6SM BKN030
     FM281800 31011G18KT P6SM BKN035
     FM282300 35008KT P6SM SCT035=

USA.gov is the U.S. government's official web portal to all federal, state and local government web resources and services.